Time;durP1;ratioP1;P1;durP2;ratioP2;P2;SDS_P1;SDS_P2;PMS_P1;PMS_P2;Temp;Humidity;BMP_temperature;BMP_pressure;BME280_temperature;BME280_humidity;BME280_pressure;Samples;Min_cycle;Max_cycle;Signal;HPM_P1;HPM_P2
2022/09/25 00:00:04;;;;;;;;;;;;;;;;;;5042407;28;915;-78
2022/09/25 00:02:29;;;;;;;;;;;;;;;;;;5042544;28;1254;-77
2022/09/25 00:04:54;;;;;;;;;;;;;;;;;;5042112;28;891;-77
2022/09/25 00:07:20;;;;;;;;;;;;;;;;;;5042670;28;827;-77
2022/09/25 00:09:45;;;;;;;;;;;;;;;;;;5042157;28;963;-78
2022/09/25 00:12:10;;;;;;;;;;;;;;;;;;5042280;28;1894;-77
2022/09/25 00:14:35;;;;;;;;;;;;;;;;;;5042000;28;962;-77
2022/09/25 00:17:00;;;;;;;;;;;;;;;;;;5042492;28;938;-77
2022/09/25 00:22:09;;;;;;;;;;;;;;;;;;5082058;23;3679;-74
2022/09/25 00:24:34;;;;;;;;;;;;;;;;;;5101321;28;802;-74
2022/09/25 00:27:00;;;;;;;;;;;;;;;;;;5101971;28;1056;-74
2022/09/25 00:29:25;;;;;;;;;;;;;;;;;;5101804;28;846;-74
2022/09/25 00:31:50;;;;;;;;;;;;;;;;;;5101589;28;1975;-74
2022/09/25 00:34:15;;;;;;;;;;;;;;;;;;5101842;28;997;-74
2022/09/25 00:36:40;;;;;;;;;;;;;;;;;;5100995;28;810;-74
2022/09/25 00:39:05;;;;;;;;;;;;;;;;;;5101396;28;787;-74
2022/09/25 00:41:31;;;;;;;;;;;;;;;;;;5101730;28;1160;-74
2022/09/25 00:43:57;;;;;;;;;;;;;;;;;;5101650;28;810;-74
2022/09/25 00:46:37;;;;;;;;;;;;;;;;;;5101399;28;964;-75
2022/09/25 00:49:09;;;;;;;;;;;;;;;;;;5101694;28;1009;-74
2022/09/25 00:51:41;;;;;;;;;;;;;;;;;;5101397;28;1964;-74
2022/09/25 00:54:09;;;;;;;;;;;;;;;;;;5101566;28;864;-74
2022/09/25 00:56:40;;;;;;;;;;;;;;;;;;5101028;28;823;-74
2022/09/25 00:59:06;;;;;;;;;;;;;;;;;;5101393;28;810;-74
2022/09/25 01:01:31;;;;;;;;;;;;;;;;;;5101230;28;1191;-74
2022/09/25 01:03:56;;;;;;;;;;;;;;;;;;5101397;28;956;-74
2022/09/25 01:06:24;;;;;;;;;;;;;;;;;;5100923;28;818;-74
2022/09/25 01:08:49;;;;;;;;;;;;;;;;;;5101292;28;794;-74
2022/09/25 01:11:15;;;;;;;;;;;;;;;;;;5101264;28;1902;-74
2022/09/25 01:13:40;;;;;;;;;;;;;;;;;;5101315;28;881;-74
2022/09/25 01:16:30;;;;;;;;;;;;;;;;;;5100813;28;1170;-74
2022/09/25 01:19:14;;;;;;;;;;;;;;;;;;5101270;28;1004;-74
2022/09/25 01:21:39;;;;;;;;;;;;;;;;;;5101045;28;1227;-74
2022/09/25 01:24:28;;;;;;;;;;;;;;;;;;5101095;28;822;-74
2022/09/25 01:26:59;;;;;;;;;;;;;;;;;;5100949;28;918;-74
2022/09/25 01:29:24;;;;;;;;;;;;;;;;;;5101090;28;965;-74
2022/09/25 01:32:01;;;;;;;;;;;;;;;;;;5101069;28;1961;-74
2022/09/25 01:34:45;;;;;;;;;;;;;;;;;;5100761;28;862;-74
2022/09/25 01:37:16;;;;;;;;;;;;;;;;;;5100795;28;841;-74
2022/09/25 01:39:59;;;;;;;;;;;;;;;;;;5101087;28;865;-74
2022/09/25 01:42:26;;;;;;;;;;;;;;;;;;5100542;28;1181;-75
2022/09/25 01:44:55;;;;;;;;;;;;;;;;;;5100642;28;1269;-74
2022/09/25 01:47:22;;;;;;;;;;;;;;;;;;5082496;28;807;-74
2022/09/25 01:49:50;;;;;;;;;;;;;;;;;;5102308;28;857;-74
2022/09/25 01:52:21;;;;;;;;;;;;;;;;;;5104167;28;1963;-75
2022/09/25 01:54:50;;;;;;;;;;;;;;;;;;5104153;28;1115;-75
2022/09/25 01:57:31;;;;;;;;;;;;;;;;;;5104143;28;943;-74
2022/09/25 02:00:00;;;;;;;;;;;;;;;;;;5104312;28;893;-74
2022/09/25 02:02:27;;;;;;;;;;;;;;;;;;5103945;28;1247;-75
2022/09/25 02:04:54;;;;;;;;;;;;;;;;;;5103975;28;1059;-74
2022/09/25 02:07:22;;;;;;;;;;;;;;;;;;5103959;28;889;-74
2022/09/25 02:09:52;;;;;;;;;;;;;;;;;;5103988;28;803;-74
2022/09/25 02:12:21;;;;;;;;;;;;;;;;;;5103712;28;1948;-75
2022/09/25 02:15:06;;;;;;;;;;;;;;;;;;5103937;28;937;-74
2022/09/25 02:20:31;;;;;;;;;;;;;;;;;;5104184;28;613;-75
2022/09/25 02:23:16;;;;;;;;;;;;;;;;;;5103690;28;1262;-74
2022/09/25 02:25:44;;;;;;;;;;;;;;;;;;5103740;28;865;-74
2022/09/25 02:28:10;;;;;;;;;;;;;;;;;;5103598;28;822;-75
2022/09/25 02:30:35;;;;;;;;;;;;;;;;;;5103816;28;858;-74
2022/09/25 02:33:00;;;;;;;;;;;;;;;;;;5103511;28;1897;-75
2022/09/25 02:35:26;;;;;;;;;;;;;;;;;;5103593;28;791;-74
2022/09/25 02:37:52;;;;;;;;;;;;;;;;;;5103804;28;846;-75
2022/09/25 02:40:18;;;;;;;;;;;;;;;;;;5085254;28;1663;-75
2022/09/25 02:42:48;;;;;;;;;;;;;;;;;;5103389;28;1217;-74
2022/09/25 02:45:22;;;;;;;;;;;;;;;;;;5103359;28;798;-75
2022/09/25 02:48:02;;;;;;;;;;;;;;;;;;5103633;28;779;-74
2022/09/25 02:50:33;;;;;;;;;;;;;;;;;;5103434;28;857;-74
2022/09/25 02:53:08;;;;;;;;;;;;;;;;;;5103139;28;1893;-74
2022/09/25 02:55:38;;;;;;;;;;;;;;;;;;5102887;28;799;-75
2022/09/25 02:58:15;;;;;;;;;;;;;;;;;;5103210;28;1067;-74
2022/09/25 03:00:42;;;;;;;;;;;;;;;;;;5102828;28;775;-75
2022/09/25 03:03:09;;;;;;;;;;;;;;;;;;5103003;28;1270;-74
2022/09/25 03:05:35;;;;;;;;;;;;;;;;;;5102797;28;1082;-74
2022/09/25 03:10:45;;;;;;;;;;;;;;;;;;5103455;28;1901;-74
2022/09/25 03:13:17;;;;;;;;;;;;;;;;;;5103070;28;1128;-74
2022/09/25 03:15:44;;;;;;;;;;;;;;;;;;5103231;28;813;-74
2022/09/25 03:18:09;;;;;;;;;;;;;;;;;;5102934;28;802;-75
2022/09/25 03:20:34;;;;;;;;;;;;;;;;;;5102852;28;912;-74
2022/09/25 03:23:00;;;;;;;;;;;;;;;;;;5102739;28;1175;-74
2022/09/25 03:25:25;;;;;;;;;;;;;;;;;;5102564;28;977;-74
2022/09/25 03:27:50;;;;;;;;;;;;;;;;;;5102893;28;878;-74
2022/09/25 03:30:15;;;;;;;;;;;;;;;;;;5102797;28;968;-74
2022/09/25 03:32:41;;;;;;;;;;;;;;;;;;5102597;28;1894;-74
2022/09/25 03:35:06;;;;;;;;;;;;;;;;;;5102409;28;869;-74
2022/09/25 03:37:31;;;;;;;;;;;;;;;;;;5102708;28;1352;-74
2022/09/25 03:39:56;;;;;;;;;;;;;;;;;;5102472;28;937;-74
2022/09/25 03:42:25;;;;;;;;;;;;;;;;;;5102544;28;1096;-74
2022/09/25 03:44:50;;;;;;;;;;;;;;;;;;5102410;28;874;-74
2022/09/25 03:47:16;;;;;;;;;;;;;;;;;;5102565;28;791;-74
2022/09/25 03:49:41;;;;;;;;;;;;;;;;;;5102298;28;985;-75
2022/09/25 03:52:11;;;;;;;;;;;;;;;;;;5102597;28;1953;-74
2022/09/25 03:54:36;;;;;;;;;;;;;;;;;;5102139;28;916;-75
2022/09/25 03:57:02;;;;;;;;;;;;;;;;;;5102521;28;869;-74
2022/09/25 03:59:27;;;;;;;;;;;;;;;;;;5102289;28;1001;-75
2022/09/25 04:01:52;;;;;;;;;;;;;;;;;;5102379;28;1123;-74
2022/09/25 04:04:17;;;;;;;;;;;;;;;;;;5102217;28;1063;-74
2022/09/25 04:06:42;;;;;;;;;;;;;;;;;;5102396;28;858;-74
2022/09/25 04:09:07;;;;;;;;;;;;;;;;;;5102154;28;976;-74
2022/09/25 04:11:33;;;;;;;;;;;;;;;;;;5083159;28;1893;-74
2022/09/25 04:13:58;;;;;;;;;;;;;;;;;;5101882;28;850;-74
2022/09/25 04:16:24;;;;;;;;;;;;;;;;;;5101684;28;779;-75
2022/09/25 04:18:50;;;;;;;;;;;;;;;;;;5084054;28;1495;-74
2022/09/25 04:21:15;;;;;;;;;;;;;;;;;;5101718;28;1144;-74
2022/09/25 04:23:40;;;;;;;;;;;;;;;;;;5102063;28;901;-74
2022/09/25 04:26:06;;;;;;;;;;;;;;;;;;5101562;28;866;-74
2022/09/25 04:28:31;;;;;;;;;;;;;;;;;;5101924;28;941;-74
2022/09/25 04:30:57;;;;;;;;;;;;;;;;;;5101553;28;1897;-74
2022/09/25 04:36:06;;;;;;;;;;;;;;;;;;5102061;28;624;-74
2022/09/25 04:38:31;;;;;;;;;;;;;;;;;;5101945;28;980;-74
2022/09/25 04:40:58;;;;;;;;;;;;;;;;;;5101657;28;1216;-74
2022/09/25 04:43:23;;;;;;;;;;;;;;;;;;5101732;28;791;-74
2022/09/25 04:45:50;;;;;;;;;;;;;;;;;;5083123;28;1052;-74
2022/09/25 04:48:15;;;;;;;;;;;;;;;;;;5101602;28;822;-74
2022/09/25 04:50:45;;;;;;;;;;;;;;;;;;5100707;28;1012;-74
2022/09/25 04:53:11;;;;;;;;;;;;;;;;;;5101232;28;1187;-75
2022/09/25 04:55:37;;;;;;;;;;;;;;;;;;5101290;28;841;-75
2022/09/25 04:58:02;;;;;;;;;;;;;;;;;;5101293;28;900;-75
2022/09/25 05:00:29;;;;;;;;;;;;;;;;;;5101492;28;796;-74
2022/09/25 05:02:54;;;;;;;;;;;;;;;;;;5101394;28;1148;-75
2022/09/25 05:05:20;;;;;;;;;;;;;;;;;;5101147;28;834;-75
2022/09/25 05:07:53;;;;;;;;;;;;;;;;;;5101316;28;748;-75
2022/09/25 05:10:19;;;;;;;;;;;;;;;;;;5101207;28;814;-75
2022/09/25 05:12:44;;;;;;;;;;;;;;;;;;5100867;28;1893;-75
2022/09/25 05:15:10;;;;;;;;;;;;;;;;;;5101017;28;910;-74
2022/09/25 05:17:35;;;;;;;;;;;;;;;;;;5101038;28;981;-74
2022/09/25 05:20:02;;;;;;;;;;;;;;;;;;5101248;28;914;-75
2022/09/25 05:22:27;;;;;;;;;;;;;;;;;;5100955;28;1175;-74
2022/09/25 05:24:52;;;;;;;;;;;;;;;;;;5100688;28;862;-74
2022/09/25 05:27:17;;;;;;;;;;;;;;;;;;5100907;28;849;-74
2022/09/25 05:29:43;;;;;;;;;;;;;;;;;;5101024;28;933;-75
2022/09/25 05:32:08;;;;;;;;;;;;;;;;;;5100678;28;1961;-74
2022/09/25 05:34:34;;;;;;;;;;;;;;;;;;5100753;28;1013;-75
2022/09/25 05:36:59;;;;;;;;;;;;;;;;;;5100701;28;806;-74
2022/09/25 05:39:24;;;;;;;;;;;;;;;;;;5100871;28;845;-75
2022/09/25 05:41:49;;;;;;;;;;;;;;;;;;5100763;28;1180;-74
2022/09/25 05:44:15;;;;;;;;;;;;;;;;;;5100934;28;740;-74
2022/09/25 05:46:40;;;;;;;;;;;;;;;;;;5100562;28;933;-74
2022/09/25 05:49:05;;;;;;;;;;;;;;;;;;5082562;28;858;-74
2022/09/25 05:51:31;;;;;;;;;;;;;;;;;;5100595;28;1953;-74
2022/09/25 05:53:56;;;;;;;;;;;;;;;;;;5100594;28;1060;-74
2022/09/25 05:56:25;;;;;;;;;;;;;;;;;;5100348;28;853;-74
2022/09/25 05:58:51;;;;;;;;;;;;;;;;;;5100547;28;953;-74
2022/09/25 06:01:19;;;;;;;;;;;;;;;;;;5100472;28;1144;-74
2022/09/25 06:03:44;;;;;;;;;;;;;;;;;;5100395;28;897;-74
2022/09/25 06:06:10;;;;;;;;;;;;;;;;;;5100206;28;981;-75
2022/09/25 06:08:35;;;;;;;;;;;;;;;;;;5100376;28;823;-75
2022/09/25 06:11:01;;;;;;;;;;;;;;;;;;5100127;28;1898;-75
2022/09/25 06:13:26;;;;;;;;;;;;;;;;;;5100200;28;790;-75
2022/09/25 06:15:52;;;;;;;;;;;;;;;;;;5100097;28;997;-75
2022/09/25 06:18:21;;;;;;;;;;;;;;;;;;5100315;28;819;-75
2022/09/25 06:20:46;;;;;;;;;;;;;;;;;;5100173;28;869;-75
2022/09/25 06:23:12;;;;;;;;;;;;;;;;;;5082824;22;2156;-71
2022/09/25 06:25:37;;;;;;;;;;;;;;;;;;5059864;28;819;-71
2022/09/25 06:28:03;;;;;;;;;;;;;;;;;;5060180;28;894;-71
2022/09/25 06:30:35;;;;;;;;;;;;;;;;;;5060510;28;1028;-71
2022/09/25 06:33:01;;;;;;;;;;;;;;;;;;5045290;28;1906;-71
2022/09/25 06:35:28;;;;;;;;;;;;;;;;;;5041133;28;1017;-71
2022/09/25 06:37:57;;;;;;;;;;;;;;;;;;5059162;28;1199;-71
2022/09/25 06:40:22;;;;;;;;;;;;;;;;;;5043525;28;842;-70
2022/09/25 06:42:53;;;;;;;;;;;;;;;;;;5043392;28;1257;-71
2022/09/25 06:45:18;;;;;;;;;;;;;;;;;;5043169;28;957;-71
2022/09/25 06:47:43;;;;;;;;;;;;;;;;;;5043603;28;803;-70
2022/09/25 06:50:10;;;;;;;;;;;;;;;;;;5043320;28;1028;-71
2022/09/25 06:52:42;;;;;;;;;;;;;;;;;;5043267;28;1957;-71
2022/09/25 06:55:07;;;;;;;;;;;;;;;;;;5025205;28;1629;-71
2022/09/25 06:57:35;;;;;;;;;;;;;;;;;;5043513;28;807;-71
2022/09/25 07:00:01;;;;;;;;;;;;;;;;;;5043610;28;898;-71
2022/09/25 07:05:09;;;;;;;;;;;;;;;;;;5043242;28;622;-71
2022/09/25 07:07:35;;;;;;;;;;;;;;;;;;5043338;28;970;-71
2022/09/25 07:10:00;;;;;;;;;;;;;;;;;;5043088;28;950;-71
2022/09/25 07:12:25;;;;;;;;;;;;;;;;;;5025178;28;1965;-70
2022/09/25 07:14:50;;;;;;;;;;;;;;;;;;5042829;28;985;-71
2022/09/25 07:17:15;;;;;;;;;;;;;;;;;;5043144;28;902;-71
2022/09/25 07:19:40;;;;;;;;;;;;;;;;;;5042960;28;859;-72
2022/09/25 07:22:06;;;;;;;;;;;;;;;;;;5042795;28;1168;-72
2022/09/25 07:24:31;;;;;;;;;;;;;;;;;;5042723;28;792;-72
2022/09/25 07:26:57;;;;;;;;;;;;;;;;;;5043082;28;806;-72
2022/09/25 07:29:22;;;;;;;;;;;;;;;;;;5042966;28;938;-72
2022/09/25 07:31:47;;;;;;;;;;;;;;;;;;5042821;28;1894;-72
2022/09/25 07:34:12;;;;;;;;;;;;;;;;;;5042719;28;910;-72
2022/09/25 07:36:38;;;;;;;;;;;;;;;;;;5042826;28;807;-72
2022/09/25 07:39:04;;;;;;;;;;;;;;;;;;5043251;28;870;-72
2022/09/25 07:41:29;;;;;;;;;;;;;;;;;;5042699;28;1168;-72
2022/09/25 07:43:56;;;;;;;;;;;;;;;;;;5042832;28;841;-72
2022/09/25 07:46:21;;;;;;;;;;;;;;;;;;5041738;28;890;-72
2022/09/25 07:48:49;;;;;;;;;;;;;;;;;;5042103;28;929;-72
2022/09/25 07:51:15;;;;;;;;;;;;;;;;;;5042331;28;1898;-72
2022/09/25 07:53:41;;;;;;;;;;;;;;;;;;5042606;28;906;-72
2022/09/25 07:56:07;;;;;;;;;;;;;;;;;;5042191;28;847;-72
2022/09/25 07:58:33;;;;;;;;;;;;;;;;;;5042583;28;947;-72
2022/09/25 08:01:00;;;;;;;;;;;;;;;;;;5042515;28;866;-72
2022/09/25 08:03:25;;;;;;;;;;;;;;;;;;5042211;28;1247;-72
2022/09/25 08:05:57;;;;;;;;;;;;;;;;;;5042019;28;910;-72
2022/09/25 08:08:23;;;;;;;;;;;;;;;;;;5042463;28;827;-72
2022/09/25 08:10:48;;;;;;;;;;;;;;;;;;5042419;28;831;-72
2022/09/25 08:13:16;;;;;;;;;;;;;;;;;;5024540;28;1882;-72
2022/09/25 08:15:41;;;;;;;;;;;;;;;;;;5042345;28;886;-72
2022/09/25 08:18:07;;;;;;;;;;;;;;;;;;5042008;28;815;-72
2022/09/25 08:20:32;;;;;;;;;;;;;;;;;;5041974;28;787;-72
2022/09/25 08:22:58;;;;;;;;;;;;;;;;;;5041845;28;1133;-72
2022/09/25 08:25:23;;;;;;;;;;;;;;;;;;5041736;28;761;-72
2022/09/25 08:27:48;;;;;;;;;;;;;;;;;;5042005;28;842;-72
2022/09/25 08:30:16;;;;;;;;;;;;;;;;;;5041891;28;1036;-71
2022/09/25 08:32:41;;;;;;;;;;;;;;;;;;5041903;28;1961;-72
2022/09/25 08:35:06;;;;;;;;;;;;;;;;;;5041727;28;977;-71
2022/09/25 08:37:32;;;;;;;;;;;;;;;;;;5042011;28;850;-72
2022/09/25 08:39:57;;;;;;;;;;;;;;;;;;5042058;28;1056;-72
2022/09/25 08:42:29;;;;;;;;;;;;;;;;;;5041594;28;1136;-72
2022/09/25 08:50:24;;;;;;;;;;;;;;;;;;5042081;28;617;-72
2022/09/25 08:52:56;;;;;;;;;;;;;;;;;;5023984;28;1965;-72
2022/09/25 08:56:13;;;;;;;;;;;;;;;;;;5041567;28;1185;-72
2022/09/25 08:58:12;;;;;;;;;;;;;;;;;;5041171;28;1207;-73
2022/09/25 09:00:37;;;;;;;;;;;;;;;;;;5041659;28;842;-72
2022/09/25 09:03:02;;;;;;;;;;;;;;;;;;5041328;28;1175;-72
2022/09/25 09:05:29;;;;;;;;;;;;;;;;;;5041337;28;799;-72
2022/09/25 09:08:24;;;;;;;;;;;;;;;;;;5041688;28;1052;-72
2022/09/25 09:10:53;;;;;;;;;;;;;;;;;;5039888;28;1042;-72
2022/09/25 09:13:36;;;;;;;;;;;;;;;;;;5041367;28;1955;-72
2022/09/25 09:16:06;;;;;;;;;;;;;;;;;;5041097;28;1005;-72
2022/09/25 09:18:39;;;;;;;;;;;;;;;;;;5041298;28;883;-73
2022/09/25 09:21:24;;;;;;;;;;;;;;;;;;5041389;28;981;-72
2022/09/25 09:23:49;;;;;;;;;;;;;;;;;;5041369;28;815;-72
2022/09/25 09:26:19;;;;;;;;;;;;;;;;;;5041190;28;867;-72
2022/09/25 09:28:44;;;;;;;;;;;;;;;;;;5049574;28;1045;-72
2022/09/25 09:31:14;;;;;;;;;;;;;;;;;;5047335;28;1957;-72
2022/09/25 09:33:51;;;;;;;;;;;;;;;;;;5041062;28;949;-72
2022/09/25 09:36:25;;;;;;;;;;;;;;;;;;5041036;28;883;-72
2022/09/25 09:39:09;;;;;;;;;;;;;;;;;;5023442;28;923;-72
2022/09/25 09:41:53;;;;;;;;;;;;;;;;;;5040896;28;1233;-72
2022/09/25 09:44:20;;;;;;;;;;;;;;;;;;5041187;28;902;-72
2022/09/25 09:46:55;;;;;;;;;;;;;;;;;;5040851;28;843;-72
2022/09/25 09:49:39;;;;;;;;;;;;;;;;;;5041297;28;811;-72
2022/09/25 09:52:16;;;;;;;;;;;;;;;;;;5040683;28;1886;-72
2022/09/25 09:54:59;;;;;;;;;;;;;;;;;;5040837;28;823;-72
2022/09/25 09:57:26;;;;;;;;;;;;;;;;;;5040712;28;894;-72
2022/09/25 09:59:54;;;;;;;;;;;;;;;;;;5040865;28;811;-72
2022/09/25 10:02:25;;;;;;;;;;;;;;;;;;5040720;28;1228;-72
2022/09/25 10:04:52;;;;;;;;;;;;;;;;;;5040704;28;1005;-72
2022/09/25 10:07:18;;;;;;;;;;;;;;;;;;5040803;28;1075;-72
2022/09/25 10:09:45;;;;;;;;;;;;;;;;;;5023035;28;1557;-72
2022/09/25 10:12:31;;;;;;;;;;;;;;;;;;5044070;28;1886;-72
2022/09/25 10:14:58;;;;;;;;;;;;;;;;;;5043939;28;823;-72
2022/09/25 10:17:24;;;;;;;;;;;;;;;;;;5044385;28;854;-72
2022/09/25 10:19:56;;;;;;;;;;;;;;;;;;5044267;28;940;-72
2022/09/25 10:22:24;;;;;;;;;;;;;;;;;;5044119;28;1164;-72
2022/09/25 10:24:51;;;;;;;;;;;;;;;;;;5043814;28;850;-72
2022/09/25 10:27:23;;;;;;;;;;;;;;;;;;5044125;28;957;-71
2022/09/25 10:29:59;;;;;;;;;;;;;;;;;;5043986;28;985;-71
2022/09/25 10:32:25;;;;;;;;;;;;;;;;;;5043782;28;1905;-71
2022/09/25 10:34:51;;;;;;;;;;;;;;;;;;5042584;28;997;-71
2022/09/25 10:37:20;;;;;;;;;;;;;;;;;;5044020;28;819;-72
2022/09/25 10:39:59;;;;;;;;;;;;;;;;;;5043519;28;986;-72
2022/09/25 10:42:33;;;;;;;;;;;;;;;;;;5025997;28;1192;-72
2022/09/25 10:44:58;;;;;;;;;;;;;;;;;;5043516;28;1028;-72
2022/09/25 10:50:10;;;;;;;;;;;;;;;;;;5043596;28;648;-72
2022/09/25 10:52:53;;;;;;;;;;;;;;;;;;5043551;28;1957;-71
2022/09/25 10:55:28;;;;;;;;;;;;;;;;;;5043251;28;862;-72
2022/09/25 10:58:05;;;;;;;;;;;;;;;;;;5043638;28;827;-72
2022/09/25 11:00:35;;;;;;;;;;;;;;;;;;5043305;28;1033;-72
2022/09/25 11:03:01;;;;;;;;;;;;;;;;;;5043337;28;1164;-72
2022/09/25 11:05:31;;;;;;;;;;;;;;;;;;5043152;28;780;-72
2022/09/25 11:07:58;;;;;;;;;;;;;;;;;;5043578;28;851;-72
2022/09/25 11:10:25;;;;;;;;;;;;;;;;;;5043266;28;803;-72
2022/09/25 11:12:51;;;;;;;;;;;;;;;;;;5043196;28;1890;-71
2022/09/25 11:15:18;;;;;;;;;;;;;;;;;;5042782;28;764;-71
2022/09/25 11:17:44;;;;;;;;;;;;;;;;;;5043291;28;807;-71
2022/09/25 11:20:15;;;;;;;;;;;;;;;;;;5043045;28;795;-71
2022/09/25 11:22:42;;;;;;;;;;;;;;;;;;5042741;28;1148;-71
2022/09/25 11:25:20;;;;;;;;;;;;;;;;;;5042900;28;821;-71
2022/09/25 11:27:48;;;;;;;;;;;;;;;;;;5043006;28;838;-71
2022/09/25 11:30:15;;;;;;;;;;;;;;;;;;5043106;28;828;-71
2022/09/25 11:32:49;;;;;;;;;;;;;;;;;;5042856;28;1897;-71
2022/09/25 11:35:29;;;;;;;;;;;;;;;;;;5042491;28;965;-71
2022/09/25 11:37:54;;;;;;;;;;;;;;;;;;5042989;28;947;-71
2022/09/25 11:43:16;;;;;;;;;;;;;;;;;;5042817;28;1187;-71
2022/09/25 11:45:46;;;;;;;;;;;;;;;;;;5042353;28;1056;-71
2022/09/25 11:48:18;;;;;;;;;;;;;;;;;;5042885;28;830;-71
2022/09/25 11:50:46;;;;;;;;;;;;;;;;;;5042506;28;890;-72
2022/09/25 11:53:27;;;;;;;;;;;;;;;;;;5042553;28;1939;-71
2022/09/25 11:55:52;;;;;;;;;;;;;;;;;;5042520;28;898;-71
2022/09/25 11:58:20;;;;;;;;;;;;;;;;;;5042642;28;799;-71
2022/09/25 12:00:46;;;;;;;;;;;;;;;;;;5042477;28;875;-71
2022/09/25 12:03:14;;;;;;;;;;;;;;;;;;5042606;28;1158;-71
2022/09/25 12:05:58;;;;;;;;;;;;;;;;;;5042151;28;853;-71
2022/09/25 12:08:43;;;;;;;;;;;;;;;;;;5042662;28;822;-71
2022/09/25 12:11:40;;;;;;;;;;;;;;;;;;5042228;28;1950;-71
2022/09/25 12:14:12;;;;;;;;;;;;;;;;;;5021442;28;1339;-71
2022/09/25 12:16:44;;;;;;;;;;;;;;;;;;5041996;28;822;-71
2022/09/25 12:19:17;;;;;;;;;;;;;;;;;;5042345;28;886;-71
2022/09/25 12:21:45;;;;;;;;;;;;;;;;;;5057570;23;3752;-77
2022/09/25 12:24:22;;;;;;;;;;;;;;;;;;5101534;28;1680;-78
2022/09/25 12:26:58;;;;;;;;;;;;;;;;;;5102123;28;854;-78
2022/09/25 12:29:30;;;;;;;;;;;;;;;;;;5102669;28;984;-78
2022/09/25 12:31:57;;;;;;;;;;;;;;;;;;5102215;28;1975;-77
2022/09/25 12:34:24;;;;;;;;;;;;;;;;;;5101528;28;908;-77
2022/09/25 12:37:08;;;;;;;;;;;;;;;;;;5102282;28;826;-77
2022/09/25 12:39:39;;;;;;;;;;;;;;;;;;5102437;28;1032;-77
2022/09/25 12:42:22;;;;;;;;;;;;;;;;;;5102359;28;1242;-76
2022/09/25 12:45:10;;;;;;;;;;;;;;;;;;5102297;28;866;-76
2022/09/25 12:47:36;;;;;;;;;;;;;;;;;;5090993;28;1489;-76
2022/09/25 12:50:10;;;;;;;;;;;;;;;;;;5102265;28;865;-77
2022/09/25 12:52:38;;;;;;;;;;;;;;;;;;5102030;28;1902;-76
2022/09/25 12:55:12;;;;;;;;;;;;;;;;;;5101610;28;1063;-76
2022/09/25 12:57:56;;;;;;;;;;;;;;;;;;5102005;28;878;-76
2022/09/25 13:00:27;;;;;;;;;;;;;;;;;;5102048;28;1009;-77
2022/09/25 13:03:10;;;;;;;;;;;;;;;;;;5102180;28;1139;-77
2022/09/25 13:05:55;;;;;;;;;;;;;;;;;;5101566;28;822;-76
2022/09/25 13:08:20;;;;;;;;;;;;;;;;;;5101815;28;933;-76
2022/09/25 13:10:49;;;;;;;;;;;;;;;;;;5101887;28;889;-76
2022/09/25 13:13:18;;;;;;;;;;;;;;;;;;5101560;28;1890;-76
2022/09/25 13:15:45;;;;;;;;;;;;;;;;;;5086589;28;1040;-76
2022/09/25 13:18:14;;;;;;;;;;;;;;;;;;5081609;28;897;-76
2022/09/25 13:20:41;;;;;;;;;;;;;;;;;;5081498;28;973;-76
2022/09/25 13:23:12;;;;;;;;;;;;;;;;;;5081095;28;1176;-76
2022/09/25 13:25:40;;;;;;;;;;;;;;;;;;5081218;28;878;-76
2022/09/25 13:28:06;;;;;;;;;;;;;;;;;;5081464;28;834;-76
2022/09/25 13:30:32;;;;;;;;;;;;;;;;;;5081247;28;878;-76
2022/09/25 13:33:00;;;;;;;;;;;;;;;;;;5081003;28;1902;-76
2022/09/25 13:35:25;;;;;;;;;;;;;;;;;;5081095;28;874;-77
2022/09/25 13:37:52;;;;;;;;;;;;;;;;;;5081117;28;1028;-77
2022/09/25 13:43:26;;;;;;;;;;;;;;;;;;5081145;28;1163;-76
2022/09/25 13:46:12;;;;;;;;;;;;;;;;;;5083948;28;842;-77
2022/09/25 13:48:39;;;;;;;;;;;;;;;;;;5084776;28;901;-77
2022/09/25 13:51:19;;;;;;;;;;;;;;;;;;5084828;28;909;-77
2022/09/25 13:54:02;;;;;;;;;;;;;;;;;;5084465;28;1242;-77
2022/09/25 13:56:39;;;;;;;;;;;;;;;;;;5084402;28;870;-77
2022/09/25 13:59:14;;;;;;;;;;;;;;;;;;5084669;28;1000;-77
2022/09/25 14:01:41;;;;;;;;;;;;;;;;;;5084252;28;1143;-77
2022/09/25 14:04:13;;;;;;;;;;;;;;;;;;5084590;28;806;-77
2022/09/25 14:06:40;;;;;;;;;;;;;;;;;;5084153;28;1000;-77
2022/09/25 14:09:14;;;;;;;;;;;;;;;;;;5084313;28;818;-77
2022/09/25 14:11:42;;;;;;;;;;;;;;;;;;5084094;28;1960;-77
2022/09/25 14:14:12;;;;;;;;;;;;;;;;;;5084059;28;989;-78
2022/09/25 14:16:40;;;;;;;;;;;;;;;;;;5083985;28;897;-78
2022/09/25 14:19:07;;;;;;;;;;;;;;;;;;5084407;28;818;-78
2022/09/25 14:21:33;;;;;;;;;;;;;;;;;;5084155;28;1163;-77
2022/09/25 14:24:22;;;;;;;;;;;;;;;;;;5083972;28;873;-78
2022/09/25 14:26:48;;;;;;;;;;;;;;;;;;5084148;28;917;-78
2022/09/25 14:29:17;;;;;;;;;;;;;;;;;;5083988;28;844;-78
2022/09/25 14:31:49;;;;;;;;;;;;;;;;;;5083842;28;1906;-77
2022/09/25 14:34:30;;;;;;;;;;;;;;;;;;5083860;28;930;-78
2022/09/25 14:37:04;;;;;;;;;;;;;;;;;;5084094;28;985;-77
2022/09/25 14:39:32;;;;;;;;;;;;;;;;;;5083847;28;866;-77
2022/09/25 14:42:17;;;;;;;;;;;;;;;;;;5083789;28;1270;-77
2022/09/25 14:44:48;;;;;;;;;;;;;;;;;;5083501;28;850;-78
2022/09/25 14:47:14;;;;;;;;;;;;;;;;;;5084049;28;846;-78
2022/09/25 14:49:40;;;;;;;;;;;;;;;;;;5083864;28;873;-78
2022/09/25 14:52:12;;;;;;;;;;;;;;;;;;5083727;28;1882;-77
2022/09/25 14:54:39;;;;;;;;;;;;;;;;;;5083819;28;1101;-78
2022/09/25 14:57:06;;;;;;;;;;;;;;;;;;5083711;28;1040;-78
2022/09/25 14:59:47;;;;;;;;;;;;;;;;;;5084213;28;787;-78
2022/09/25 15:02:21;;;;;;;;;;;;;;;;;;5083534;28;1168;-78
2022/09/25 15:04:46;;;;;;;;;;;;;;;;;;5083273;28;811;-78
2022/09/25 15:07:14;;;;;;;;;;;;;;;;;;5083510;28;795;-78
2022/09/25 15:09:47;;;;;;;;;;;;;;;;;;5083310;28;831;-78
2022/09/25 15:12:44;;;;;;;;;;;;;;;;;;5083569;28;1882;-78
2022/09/25 15:15:11;;;;;;;;;;;;;;;;;;5048961;28;1462;-78
2022/09/25 15:17:42;;;;;;;;;;;;;;;;;;5083526;28;879;-78
2022/09/25 15:20:10;;;;;;;;;;;;;;;;;;5083432;28;811;-78
2022/09/25 15:22:37;;;;;;;;;;;;;;;;;;5083436;28;1250;-77
2022/09/25 15:25:03;;;;;;;;;;;;;;;;;;5082913;28;842;-78
2022/09/25 15:27:29;;;;;;;;;;;;;;;;;;5083214;28;918;-78
2022/09/25 15:29:55;;;;;;;;;;;;;;;;;;5083039;28;783;-78
2022/09/25 15:32:20;;;;;;;;;;;;;;;;;;5082966;28;1902;-78
2022/09/25 15:34:45;;;;;;;;;;;;;;;;;;5082743;28;865;-78
2022/09/25 15:37:14;;;;;;;;;;;;;;;;;;5064893;28;866;-78
2022/09/25 15:39:40;;;;;;;;;;;;;;;;;;5083299;28;842;-78
2022/09/25 15:42:05;;;;;;;;;;;;;;;;;;5083050;28;1172;-78
2022/09/25 15:44:31;;;;;;;;;;;;;;;;;;5083035;28;846;-78
2022/09/25 15:46:57;;;;;;;;;;;;;;;;;;5064713;28;1426;-78
2022/09/25 15:49:34;;;;;;;;;;;;;;;;;;5082885;28;806;-79
2022/09/25 15:52:03;;;;;;;;;;;;;;;;;;5070796;28;1933;-80
2022/09/25 15:54:31;;;;;;;;;;;;;;;;;;5083322;28;909;-79
2022/09/25 15:56:57;;;;;;;;;;;;;;;;;;5082576;28;1012;-78
2022/09/25 15:59:28;;;;;;;;;;;;;;;;;;5082857;28;937;-78
2022/09/25 16:04:48;;;;;;;;;;;;;;;;;;5082443;28;762;-78
2022/09/25 16:07:19;;;;;;;;;;;;;;;;;;5082090;28;858;-78
2022/09/25 16:09:45;;;;;;;;;;;;;;;;;;5081987;28;858;-78
2022/09/25 16:12:31;;;;;;;;;;;;;;;;;;5082250;28;1947;-78
2022/09/25 16:14:57;;;;;;;;;;;;;;;;;;5081663;28;1438;-78
2022/09/25 16:17:22;;;;;;;;;;;;;;;;;;5082347;28;913;-78
2022/09/25 16:20:01;;;;;;;;;;;;;;;;;;5082622;28;807;-78
2022/09/25 16:22:36;;;;;;;;;;;;;;;;;;5082080;28;1195;-78
2022/09/25 16:25:01;;;;;;;;;;;;;;;;;;5081976;28;993;-78
2022/09/25 16:27:30;;;;;;;;;;;;;;;;;;5081947;28;806;-78
2022/09/25 16:29:56;;;;;;;;;;;;;;;;;;5082212;28;917;-79
2022/09/25 16:32:21;;;;;;;;;;;;;;;;;;5081834;28;1898;-78
2022/09/25 16:35:00;;;;;;;;;;;;;;;;;;5082078;28;818;-78
2022/09/25 16:37:28;;;;;;;;;;;;;;;;;;5080725;28;779;-78
2022/09/25 16:40:14;;;;;;;;;;;;;;;;;;5082179;28;957;-78
2022/09/25 16:42:39;;;;;;;;;;;;;;;;;;5081333;28;1392;-78
2022/09/25 16:45:13;;;;;;;;;;;;;;;;;;5081771;28;836;-78
2022/09/25 16:47:39;;;;;;;;;;;;;;;;;;5081779;28;838;-77
2022/09/25 16:50:04;;;;;;;;;;;;;;;;;;5081857;28;857;-77
2022/09/25 16:52:30;;;;;;;;;;;;;;;;;;5081417;28;1949;-78
2022/09/25 16:54:56;;;;;;;;;;;;;;;;;;5081809;28;822;-79
2022/09/25 16:57:22;;;;;;;;;;;;;;;;;;5081576;28;873;-79
2022/09/25 16:59:48;;;;;;;;;;;;;;;;;;5082054;28;886;-78
2022/09/25 17:02:35;;;;;;;;;;;;;;;;;;5081454;28;1184;-79
2022/09/25 17:05:02;;;;;;;;;;;;;;;;;;5081398;28;917;-79
2022/09/25 17:07:28;;;;;;;;;;;;;;;;;;5081619;28;838;-79
2022/09/25 17:09:53;;;;;;;;;;;;;;;;;;5081625;28;834;-79
2022/09/25 17:12:19;;;;;;;;;;;;;;;;;;5063439;28;1906;-78
2022/09/25 17:14:45;;;;;;;;;;;;;;;;;;5081210;28;874;-78
2022/09/25 17:17:11;;;;;;;;;;;;;;;;;;5081378;28;1029;-78
2022/09/25 17:19:37;;;;;;;;;;;;;;;;;;5081027;28;957;-79
2022/09/25 17:22:02;;;;;;;;;;;;;;;;;;5081295;28;1266;-78
2022/09/25 17:24:28;;;;;;;;;;;;;;;;;;5081457;28;989;-79
2022/09/25 17:26:53;;;;;;;;;;;;;;;;;;5081388;28;818;-79
2022/09/25 17:29:19;;;;;;;;;;;;;;;;;;5081304;28;890;-79
2022/09/25 17:31:44;;;;;;;;;;;;;;;;;;5081159;28;1961;-78
2022/09/25 17:34:23;;;;;;;;;;;;;;;;;;5081193;28;1068;-78
2022/09/25 17:36:48;;;;;;;;;;;;;;;;;;5081078;28;846;-79
2022/09/25 17:39:13;;;;;;;;;;;;;;;;;;5063083;28;969;-78
2022/09/25 17:41:38;;;;;;;;;;;;;;;;;;5081135;28;1138;-77
2022/09/25 17:44:04;;;;;;;;;;;;;;;;;;5081155;28;840;-78
2022/09/25 17:46:32;;;;;;;;;;;;;;;;;;5080901;28;878;-78
2022/09/25 17:48:58;;;;;;;;;;;;;;;;;;5080897;28;857;-78
2022/09/25 17:51:24;;;;;;;;;;;;;;;;;;5081244;28;1967;-78
2022/09/25 17:53:51;;;;;;;;;;;;;;;;;;5080994;28;1277;-79
2022/09/25 17:56:16;;;;;;;;;;;;;;;;;;5080826;28;842;-78